Terminal Aerodrome Forecast
Issued by NWS

Home | Current Version | Previous Version | Text Only | Print | Product List | Glossary On
Versions: 1 2 3 4 5 6 7 8 9 10 11 12
000
FTUS41 KLWX 211700
TAFMTN
TAF
KMTN 211722Z 2118/2218 11006KT P6SM FEW040 SCT150
     FM212100 15006KT P6SM VCTS SCT030CB BKN150
     FM220400 15004KT P6SM BKN120
     FM220600 00000KT P6SM BKN080=

USA.gov is the U.S. government's official web portal to all federal, state and local government web resources and services.